Time;durP1;ratioP1;P1;durP2;ratioP2;P2;SDS_P1;SDS_P2;PMS_P1;PMS_P2;Temp;Humidity;BMP_temperature;BMP_pressure;BME280_temperature;BME280_humidity;BME280_pressure;Samples;Min_cycle;Max_cycle;Signal;HPM_P1;HPM_P2
2022/11/18 00:04:35;;;;;;;27.10;13.38;;;;;;;6.72;89.43;98612.09;10059656;29;20089;-77
2022/11/18 00:09:38;;;;;;;21.70;13.95;;;;;;;6.63;89.36;98619.09;10059150;29;20081;-76
2022/11/18 00:14:42;;;;;;;21.65;13.68;;;;;;;6.57;89.61;98619.66;10058205;29;20057;-77
2022/11/18 00:19:45;;;;;;;21.92;13.38;;;;;;;6.51;89.57;98628.25;10075589;29;20120;-77
2022/11/18 00:24:48;;;;;;;23.55;14.15;;;;;;;6.40;89.54;98633.72;10090252;29;20064;-77
2022/11/18 00:29:52;;;;;;;26.70;15.60;;;;;;;6.27;89.43;98633.16;10058808;29;20046;-77
2022/11/18 00:34:55;;;;;;;24.05;15.55;;;;;;;6.23;89.62;98631.75;10070283;29;20053;-77
2022/11/18 00:39:57;;;;;;;27.08;16.02;;;;;;;6.18;89.76;98634.84;10088964;29;20127;-78
2022/11/18 00:45:03;;;;;;;27.02;15.77;;;;;;;6.13;89.74;98645.91;10097600;29;20061;-77
2022/11/18 00:50:07;;;;;;;29.48;16.35;;;;;;;6.10;89.81;98646.19;10096436;29;20132;-78
2022/11/18 00:55:09;;;;;;;33.85;17.92;;;;;;;6.21;89.64;98655.03;10073802;29;20052;-77
2022/11/18 01:00:14;;;;;;;37.40;18.40;;;;;;;6.17;89.80;98658.00;10057815;29;20045;-77
2022/11/18 01:05:17;;;;;;;36.25;18.52;;;;;;;6.14;89.81;98657.41;10067906;29;20128;-77
2022/11/18 01:10:20;;;;;;;37.38;18.13;;;;;;;6.15;89.89;98654.63;10094658;29;20076;-77
2022/11/18 01:15:24;;;;;;;34.40;17.90;;;;;;;6.11;89.70;98657.69;10092309;29;20049;-77
2022/11/18 01:20:27;;;;;;;32.00;16.45;;;;;;;6.11;89.96;98668.34;10094173;29;20128;-77
2022/11/18 01:25:30;;;;;;;36.05;17.63;;;;;;;6.15;90.17;98673.28;10080926;29;20045;-77
2022/11/18 01:30:35;;;;;;;36.50;17.92;;;;;;;6.21;90.39;98684.38;10093529;29;20044;-77
2022/11/18 01:35:40;;;;;;;37.45;16.88;;;;;;;6.28;90.63;98697.03;10056431;29;20054;-77
2022/11/18 01:40:43;;;;;;;32.22;16.88;;;;;;;6.36;90.51;98697.19;10086823;29;20559;-77
2022/11/18 01:45:49;;;;;;;31.15;16.95;;;;;;;6.44;90.61;98700.97;10060262;29;20048;-77
2022/11/18 01:50:55;;;;;;;29.90;15.90;;;;;;;6.46;90.50;98707.84;10089745;29;20048;-77
2022/11/18 01:56:03;;;;;;;27.38;14.98;;;;;;;6.46;90.28;98712.34;10071482;29;20049;-78
2022/11/18 02:01:07;;;;;;;30.45;16.17;;;;;;;6.42;90.32;98713.56;10061279;29;20045;-77
2022/11/18 02:06:11;;;;;;;25.42;14.95;;;;;;;6.37;90.58;98719.34;10112665;29;20053;-78
2022/11/18 02:16:46;;;;;;;23.67;14.73;;;;;;;6.24;90.37;98716.09;10053922;29;20045;-77
2022/11/18 02:21:59;;;;;;;23.27;15.38;;;;;;;6.15;90.13;98720.44;10061315;29;20175;-77
2022/11/18 02:27:41;;;;;;;23.55;14.15;;;;;;;6.01;90.12;98736.81;10087869;29;20056;-78
2022/11/18 02:32:54;;;;;;;23.73;15.25;;;;;;;6.04;90.36;98736.53;10064717;29;20136;-78
2022/11/18 02:38:00;;;;;;;26.08;15.65;;;;;;;6.07;90.32;98741.59;10078316;29;20084;-78
2022/11/18 02:43:07;;;;;;;28.85;16.98;;;;;;;6.10;90.59;98741.31;10076829;29;20124;-78
2022/11/18 02:48:14;;;;;;;29.63;16.58;;;;;;;6.09;90.33;98743.13;10114539;29;20037;-77
2022/11/18 02:53:20;;;;;;;26.05;16.35;;;;;;;6.05;90.17;98748.88;10114412;29;20056;-78
2022/11/18 02:58:25;;;;;;;25.55;15.57;;;;;;;6.01;90.45;98756.31;10074702;29;20117;-78
2022/11/18 03:03:32;;;;;;;28.83;17.20;;;;;;;6.06;90.60;98759.41;10092941;29;20132;-78
2022/11/18 03:08:39;;;;;;;30.10;17.52;;;;;;;6.07;90.44;98749.59;10060862;29;20611;-77
2022/11/18 03:13:53;;;;;;;26.67;15.98;;;;;;;6.04;90.42;98760.53;10071278;29;20149;-77
2022/11/18 03:19:05;;;;;;;29.55;16.58;;;;;;;6.04;90.36;98768.53;10079755;29;20046;-78
2022/11/18 03:24:14;;;;;;;27.05;15.48;;;;;;;6.03;90.54;98772.97;10084261;29;20045;-78
2022/11/18 03:29:21;;;;;;;33.53;17.23;;;;;;;6.03;90.05;98770.31;10080769;29;20053;-78
2022/11/18 03:34:30;;;;;;;27.70;15.32;;;;;;;6.03;90.36;98777.47;10080969;29;20567;-79
2022/11/18 03:39:37;;;;;;;25.48;15.93;;;;;;;6.02;90.30;98767.81;10086271;29;20041;-78
2022/11/18 03:44:44;;;;;;;25.90;15.35;;;;;;;5.95;89.99;98771.00;10088879;29;20049;-78
2022/11/18 03:50:00;;;;;;;31.02;16.77;;;;;;;5.84;89.86;98772.91;10085092;29;20089;-78
2022/11/18 03:55:11;;;;;;;29.52;16.35;;;;;;;5.82;90.16;98786.38;10073600;29;20049;-78
2022/11/18 04:00:16;;;;;;;29.25;15.93;;;;;;;5.79;90.11;98791.09;10073845;29;20064;-78
2022/11/18 04:05:20;;;;;;;29.60;16.88;;;;;;;5.67;89.61;98795.69;10075216;29;20522;-78
2022/11/18 04:10:29;;;;;;;29.67;15.55;;;;;;;5.70;90.20;98806.06;10074957;29;20045;-78
2022/11/18 04:15:32;;;;;;;31.75;16.85;;;;;;;5.78;90.41;98806.25;10074760;29;20045;-78
2022/11/18 04:20:37;;;;;;;28.48;15.80;;;;;;;5.84;90.38;98808.41;10077398;29;20503;-78
2022/11/18 04:25:40;;;;;;;31.65;17.60;;;;;;;5.84;90.49;98812.88;10086658;29;20084;-78
2022/11/18 04:30:43;;;;;;;32.30;17.52;;;;;;;6.02;90.79;98815.78;10085316;29;20037;-78
2022/11/18 04:35:48;;;;;;;36.67;18.17;;;;;;;6.12;90.78;98827.34;10068100;29;20388;-78
2022/11/18 04:40:50;;;;;;;30.83;17.20;;;;;;;6.15;90.51;98829.72;10072858;29;20053;-78
2022/11/18 04:45:53;;;;;;;33.78;17.73;;;;;;;6.19;90.81;98833.81;10087686;29;20087;-78
2022/11/18 04:50:58;;;;;;;32.33;17.80;;;;;;;6.26;90.80;98844.78;10078473;29;20037;-78
2022/11/18 04:56:05;;;;;;;28.17;15.77;;;;;;;6.28;90.86;98843.69;10071100;29;20466;-78
2022/11/18 05:01:08;;;;;;;30.88;17.13;;;;;;;6.29;90.67;98853.34;10073093;29;20101;-78
2022/11/18 05:06:12;;;;;;;29.77;17.80;;;;;;;6.31;90.92;98862.06;10070475;29;20086;-78
2022/11/18 05:16:36;;;;;;;51.83;18.38;;;;;;;6.39;90.53;98866.75;10069410;29;20113;-78
2022/11/18 05:21:40;;;;;;;28.50;17.05;;;;;;;6.38;90.91;98865.03;10057601;29;20458;-78
2022/11/18 05:26:43;;;;;;;31.55;17.40;;;;;;;6.40;90.81;98874.59;10058710;29;20056;-78
2022/11/18 05:31:46;;;;;;;34.92;18.98;;;;;;;6.40;90.63;98869.25;10068653;29;20434;-78
2022/11/18 05:36:50;;;;;;;35.65;19.52;;;;;;;6.35;90.57;98870.66;10071371;29;20404;-77
2022/11/18 05:47:14;;;;;;;29.05;17.42;;;;;;;6.30;90.63;98905.69;10078921;29;20452;-77
2022/11/18 05:52:18;;;;;;;29.70;16.30;;;;;;;6.35;90.83;98905.31;10075015;29;20077;-77
2022/11/18 05:57:21;;;;;;;25.38;16.02;;;;;;;6.37;90.78;98917.53;10057756;29;20049;-78
2022/11/18 06:02:24;;;;;;;25.42;15.05;;;;;;;6.36;90.55;98909.66;10070265;29;20069;-78
2022/11/18 06:07:35;;;;;;;24.90;15.43;;;;;;;6.45;90.99;98910.72;10100222;29;20045;-77
2022/11/18 06:12:43;;;;;;;26.90;16.13;;;;;;;6.50;90.91;98922.66;10092889;29;20045;-79
2022/11/18 06:17:52;;;;;;;27.67;16.70;;;;;;;6.52;90.59;98919.84;10081020;29;20068;-78
2022/11/18 06:22:59;;;;;;;30.15;15.55;;;;;;;6.51;90.45;98924.34;10093789;29;20050;-78
2022/11/18 06:28:02;;;;;;;33.25;17.48;;;;;;;6.51;90.51;98928.84;10084954;29;20502;-78
2022/11/18 06:33:05;;;;;;;29.38;16.10;;;;;;;6.54;90.85;98939.22;10085198;29;20037;-78
2022/11/18 06:38:09;;;;;;;28.02;16.83;;;;;;;6.55;90.74;98944.41;10083391;29;20053;-78
2022/11/18 06:48:33;;;;;;;33.92;17.50;;;;;;;6.55;90.45;98954.25;10084508;29;20053;-78
2022/11/18 06:53:37;;;;;;;32.13;16.90;;;;;;;6.50;89.95;98972.47;10092122;29;20412;-78
2022/11/18 06:58:41;;;;;;;31.17;15.73;;;;;;;6.47;90.57;98978.91;10059377;29;20693;-78
2022/11/18 07:03:45;;;;;;;32.30;16.58;;;;;;;6.53;90.57;98996.25;10068748;29;20053;-78
2022/11/18 07:08:50;;;;;;;27.63;16.02;;;;;;;6.56;90.48;99007.50;10058649;29;20449;-78
2022/11/18 07:13:53;;;;;;;28.63;10.82;;;;;;;6.62;90.59;99019.44;10078616;29;20053;-78
2022/11/18 07:18:56;;;;;;;22.52;11.35;;;;;;;6.83;89.63;99025.59;10079890;29;20049;-78
2022/11/18 07:24:00;;;;;;;15.70;10.10;;;;;;;6.95;89.98;99022.88;10087169;29;20532;-78
2022/11/18 07:29:03;;;;;;;16.17;9.75;;;;;;;7.03;89.12;99041.72;10080782;29;20046;-78
2022/11/18 07:34:06;;;;;;;14.35;8.55;;;;;;;7.11;89.73;99049.91;10088479;29;20052;-78
2022/11/18 07:39:10;;;;;;;22.50;12.20;;;;;;;7.11;89.14;99044.56;10078256;29;20048;-78
2022/11/18 07:44:13;;;;;;;21.98;12.57;;;;;;;7.08;89.04;99049.34;10076081;29;20108;-78
2022/11/18 07:49:16;;;;;;;18.63;11.45;;;;;;;7.03;89.25;99053.25;10081309;29;20426;-78
2022/11/18 07:54:21;;;;;;;21.38;11.93;;;;;;;6.95;89.40;99057.56;10079515;29;20057;-77
2022/11/18 07:59:24;;;;;;;22.77;11.68;;;;;;;6.87;88.41;99068.91;10080309;29;20076;-79
2022/11/18 08:04:27;;;;;;;20.38;12.02;;;;;;;6.74;88.58;99078.91;10160158;23;20124;-79
2022/11/18 08:09:31;;;;;;;19.27;12.55;;;;;;;6.71;89.05;99082.69;10127611;29;20041;-78
2022/11/18 08:14:34;;;;;;;25.05;14.00;;;;;;;6.74;88.99;99082.44;10134349;29;20056;-79
2022/11/18 08:19:36;;;;;;;25.10;13.13;;;;;;;6.79;88.91;99074.88;10119322;29;20045;-78
2022/11/18 08:24:41;;;;;;;23.90;12.15;;;;;;;6.78;87.97;99083.88;10117423;29;20095;-80
2022/11/18 08:29:43;;;;;;;20.20;12.60;;;;;;;6.75;88.23;99085.97;10128722;29;20065;-78
2022/11/18 08:34:46;;;;;;;19.67;11.63;;;;;;;6.76;88.33;99085.81;10127756;29;20040;-78
2022/11/18 08:39:50;;;;;;;18.60;12.02;;;;;;;6.82;88.10;99092.44;10126067;29;20049;-79
2022/11/18 08:44:53;;;;;;;25.58;12.45;;;;;;;6.88;88.00;99099.13;10118250;29;20080;-79
2022/11/18 08:49:56;;;;;;;21.48;12.63;;;;;;;6.89;87.58;99107.00;10124815;29;20045;-79
2022/11/18 08:55:01;;;;;;;22.55;12.82;;;;;;;6.77;86.37;99119.53;10124260;29;20049;-79
2022/11/18 09:00:04;;;;;;;22.25;13.80;;;;;;;6.70;86.08;99123.72;10118383;29;20510;-78
2022/11/18 09:05:08;;;;;;;28.02;15.15;;;;;;;6.70;86.37;99126.38;10116605;29;20065;-78
2022/11/18 09:10:12;;;;;;;25.63;13.80;;;;;;;6.61;85.58;99132.50;10126550;29;20515;-78
2022/11/18 09:15:15;;;;;;;27.38;14.30;;;;;;;6.51;84.97;99140.44;10118621;29;20087;-78
2022/11/18 09:20:19;;;;;;;28.77;15.65;;;;;;;6.50;84.84;99151.22;10118922;29;20051;-79
2022/11/18 09:25:23;;;;;;;32.75;15.35;;;;;;;6.33;84.52;99161.47;10124648;29;20049;-79
2022/11/18 09:30:26;;;;;;;31.15;15.85;;;;;;;6.39;84.27;99162.81;10124047;29;20099;-78
2022/11/18 09:35:29;;;;;;;31.98;17.02;;;;;;;6.27;84.03;99166.47;10122448;29;20069;-78
2022/11/18 09:40:37;;;;;;;28.70;15.73;;;;;;;6.28;84.22;99166.34;10126363;29;20069;-78
2022/11/18 09:45:48;;;;;;;30.38;16.17;;;;;;;6.24;83.94;99167.56;10126891;29;20077;-79
2022/11/18 09:50:55;;;;;;;30.67;15.48;;;;;;;6.36;84.88;99181.69;10122109;29;20072;-79
2022/11/18 09:56:14;;;;;;;30.45;15.95;;;;;;;6.42;84.52;99189.22;10112958;29;20088;-78
2022/11/18 10:01:20;;;;;;;28.77;15.65;;;;;;;6.42;84.88;99189.22;10121867;29;20044;-78
2022/11/18 10:06:26;;;;;;;30.20;16.88;;;;;;;6.36;84.11;99200.38;10116342;29;20072;-79
2022/11/18 10:11:37;;;;;;;28.48;16.42;;;;;;;6.26;84.04;99205.63;10107598;29;20045;-79
2022/11/18 10:16:54;;;;;;;30.90;16.63;;;;;;;6.11;83.99;99212.19;10108901;29;20049;-79
2022/11/18 10:22:17;;;;;;;36.13;19.20;;;;;;;6.00;84.24;99212.22;10121763;29;20051;-78
2022/11/18 10:27:35;;;;;;;34.00;17.17;;;;;;;5.89;84.39;99232.56;10109905;29;20077;-79
2022/11/18 10:32:53;;;;;;;33.97;19.35;;;;;;;5.77;84.57;99233.56;10114437;29;20044;-79
2022/11/18 10:38:05;;;;;;;37.72;17.95;;;;;;;5.68;84.89;99240.47;10106627;29;20049;-79
2022/11/18 10:43:12;;;;;;;36.15;18.88;;;;;;;5.53;85.65;99244.34;10114902;29;20056;-80
2022/11/18 10:48:19;;;;;;;41.05;18.90;;;;;;;5.49;86.29;99251.72;10127555;29;20095;-80
2022/11/18 10:53:31;;;;;;;44.53;19.85;;;;;;;5.56;86.72;99248.56;10128053;29;20059;-80
2022/11/18 10:58:41;;;;;;;37.20;18.42;;;;;;;5.52;86.57;99255.97;10130198;29;20096;-80
2022/11/18 11:03:56;;;;;;;35.83;19.23;;;;;;;5.48;87.04;99257.16;10119697;29;20056;-81
2022/11/18 11:09:03;;;;;;;39.05;20.45;;;;;;;5.43;87.38;99260.19;10120246;29;20052;-80
2022/11/18 11:14:15;;;;;;;42.17;19.35;;;;;;;5.31;87.68;99250.47;10119904;29;20076;-81
2022/11/18 11:19:23;;;;;;;35.35;19.27;;;;;;;5.26;88.01;99264.13;10119720;29;20087;-82
2022/11/18 11:24:27;;;;;;;38.17;20.33;;;;;;;5.17;87.95;99279.97;10140576;29;20420;-83
2022/11/18 11:29:55;;;;;;;40.70;21.00;;;;;;;5.20;88.77;99274.41;10161654;29;20037;-82
2022/11/18 11:35:07;;;;;;;38.08;19.95;;;;;;;5.15;88.56;99273.91;10153885;29;20055;-84
2022/11/18 11:40:24;;;;;;;38.92;20.65;;;;;;;5.14;88.38;99285.53;10150164;29;20061;-83
2022/11/18 11:45:37;;;;;;;38.00;20.05;;;;;;;5.00;88.52;99290.09;10147064;29;20049;-85
2022/11/18 11:50:59;;;;;;;37.17;18.98;;;;;;;4.91;88.56;99301.41;10149822;29;20063;-83
2022/11/18 11:56:27;;;;;;;40.17;20.23;;;;;;;4.94;88.55;99305.66;10142782;29;20052;-83
2022/11/18 12:01:38;;;;;;;34.53;19.75;;;;;;;4.72;88.44;99304.59;10119452;29;20081;-83
2022/11/18 12:06:44;;;;;;;42.30;19.77;;;;;;;4.65;88.67;99303.31;10136723;29;20052;-82
2022/11/18 12:11:52;;;;;;;37.83;18.88;;;;;;;4.44;89.38;99315.53;10120113;29;20144;-80
2022/11/18 12:17:06;;;;;;;38.65;18.90;;;;;;;4.45;89.24;99314.59;10124346;29;20049;-80
2022/11/18 12:22:09;;;;;;;38.10;19.88;;;;;;;4.47;89.19;99317.97;10104756;29;20049;-80
2022/11/18 12:27:14;;;;;;;39.53;19.20;;;;;;;4.65;89.56;99323.75;10125489;29;20076;-81
2022/11/18 12:32:35;;;;;;;43.75;20.35;;;;;;;4.59;89.60;99323.25;10133040;29;20063;-82
2022/11/18 12:37:42;;;;;;;41.17;20.50;;;;;;;4.59;90.17;99327.72;10130228;29;20131;-83
2022/11/18 12:48:40;;;;;;;36.53;17.93;;;;;;;4.53;89.17;99333.50;10165031;29;20423;-82
2022/11/18 12:53:45;;;;;;;37.45;17.67;;;;;;;4.44;89.03;99344.78;10122040;29;20048;-82
2022/11/18 12:58:50;;;;;;;37.20;18.48;;;;;;;4.52;89.53;99337.09;10146359;29;20056;-82
2022/11/18 13:04:07;;;;;;;36.58;17.98;;;;;;;4.39;89.00;99353.94;10138010;29;20048;-83
2022/11/18 13:09:16;;;;;;;35.22;18.10;;;;;;;4.40;89.29;99344.16;10137730;29;20060;-83
2022/11/18 13:19:56;;;;;;;33.97;17.88;;;;;;;4.28;88.75;99364.50;10142316;29;20380;-83
2022/11/18 13:24:59;;;;;;;39.35;18.05;;;;;;;4.21;88.65;99365.88;10118686;29;20056;-81
2022/11/18 13:30:05;;;;;;;32.47;17.42;;;;;;;4.13;88.73;99374.38;10149051;29;20045;-82
2022/11/18 13:35:15;;;;;;;35.17;18.17;;;;;;;4.17;89.43;99377.69;10131595;29;20053;-82
2022/11/18 13:40:21;;;;;;;35.28;17.23;;;;;;;4.06;88.87;99391.75;10125679;29;20418;-84
2022/11/18 13:45:28;;;;;;;32.33;17.38;;;;;;;4.15;89.04;99387.59;10139252;29;20044;-84
2022/11/18 13:50:37;;;;;;;34.80;18.33;;;;;;;4.13;88.74;99387.69;10140635;29;20060;-81
2022/11/18 13:55:46;;;;;;;34.67;18.27;;;;;;;4.05;88.66;99395.34;10136790;29;20079;-84
2022/11/18 14:00:53;;;;;;;36.03;18.65;;;;;;;4.05;88.78;99399.81;10130038;29;20057;-82
2022/11/18 14:05:58;;;;;;;32.58;17.13;;;;;;;3.94;87.73;99414.69;10082555;29;20064;-79
2022/11/18 14:11:02;;;;;;;35.28;18.77;;;;;;;3.87;88.28;99404.59;10115879;29;20042;-80
2022/11/18 14:16:30;;;;;;;31.52;16.90;;;;;;;3.85;88.45;99417.13;10064460;29;20061;-78
2022/11/18 14:21:37;;;;;;;34.67;18.08;;;;;;;3.86;88.51;99408.19;10055256;29;20120;-81
2022/11/18 14:26:40;;;;;;;31.20;17.10;;;;;;;3.77;87.55;99422.13;10043605;29;20109;-79
2022/11/18 14:31:42;;;;;;;35.45;17.92;;;;;;;3.75;87.73;99429.34;10035507;29;20486;-80
2022/11/18 14:36:47;;;;;;;41.55;20.05;;;;;;;3.81;88.33;99431.56;10061752;29;20056;-78
2022/11/18 14:41:50;;;;;;;46.42;22.27;;;;;;;3.69;87.63;99441.22;10058257;29;20492;-80
2022/11/18 14:46:57;;;;;;;34.83;17.55;;;;;;;3.64;87.61;99451.31;10033445;29;20083;-81
2022/11/18 14:52:03;;;;;;;33.92;18.48;;;;;;;3.59;87.25;99445.44;10041314;29;20107;-83
2022/11/18 14:57:06;;;;;;;28.02;16.15;;;;;;;3.48;87.02;99456.78;10054428;29;20049;-78
2022/11/18 15:02:13;;;;;;;33.10;18.35;;;;;;;3.40;87.11;99456.44;10063004;29;20073;-79
2022/11/18 15:07:18;;;;;;;23.33;14.23;;;;;;;3.21;85.83;99459.44;10054498;29;20054;-79
2022/11/18 15:12:26;;;;;;;27.00;13.77;;;;;;;3.31;86.70;99467.66;10058515;29;20120;-82
2022/11/18 15:17:29;;;;;;;45.53;21.90;;;;;;;3.64;87.29;99477.88;10059808;29;20046;-82
2022/11/18 15:22:34;;;;;;;23.90;14.43;;;;;;;3.61;86.61;99476.25;10067545;29;20053;-83
2022/11/18 15:27:37;;;;;;;18.90;11.63;;;;;;;3.20;85.26;99485.13;10049421;29;20061;-81
2022/11/18 15:32:40;;;;;;;17.40;10.80;;;;;;;2.99;85.11;99498.00;10052174;29;20073;-83
2022/11/18 15:37:44;;;;;;;14.63;8.63;;;;;;;2.95;85.58;99501.78;10057044;29;20554;-84
2022/11/18 15:42:47;;;;;;;12.82;7.97;;;;;;;2.94;85.46;99507.19;10052940;29;20060;-83
2022/11/18 15:47:54;;;;;;;12.43;7.75;;;;;;;2.90;85.63;99514.47;10053642;29;20095;-83
2022/11/18 15:52:58;;;;;;;14.35;8.10;;;;;;;2.72;85.38;99526.25;10081971;29;20050;-83
2022/11/18 15:58:01;;;;;;;15.73;8.68;;;;;;;2.69;85.58;99531.72;10042499;29;20046;-79
2022/11/18 16:03:04;;;;;;;13.55;8.80;;;;;;;2.63;87.53;99537.41;10055508;29;20046;-81
2022/11/18 16:08:08;;;;;;;19.88;10.40;;;;;;;2.65;87.50;99544.34;10061099;29;20088;-83
2022/11/18 16:13:11;;;;;;;20.40;11.27;;;;;;;2.58;87.59;99543.88;10056099;29;20037;-82
2022/11/18 16:18:14;;;;;;;24.35;13.18;;;;;;;2.47;87.46;99545.41;10044770;29;20103;-79
2022/11/18 16:23:19;;;;;;;23.15;13.05;;;;;;;2.34;87.22;99562.09;10047161;29;20053;-77
2022/11/18 16:28:21;;;;;;;23.65;13.05;;;;;;;2.00;93.44;99563.22;10039892;29;20045;-77
2022/11/18 16:33:24;;;;;;;19.83;12.05;;;;;;;1.86;92.72;99576.41;10031443;29;20046;-77
2022/11/18 16:38:28;;;;;;;29.38;15.02;;;;;;;1.58;90.58;99578.00;10040918;29;20081;-77
2022/11/18 16:43:31;;;;;;;23.67;13.18;;;;;;;1.65;90.37;99574.06;10044812;29;20608;-77
2022/11/18 16:48:34;;;;;;;28.38;14.75;;;;;;;1.69;89.90;99583.53;10030300;29;20042;-77
2022/11/18 16:53:38;;;;;;;34.13;16.92;;;;;;;1.65;89.93;99595.25;10031448;29;20052;-77
2022/11/18 16:58:40;;;;;;;26.30;14.18;;;;;;;1.48;89.23;99600.63;10052799;29;20772;-77
2022/11/18 17:03:43;;;;;;;27.35;15.23;;;;;;;1.23;90.77;99598.47;10047990;29;20052;-77
2022/11/18 17:08:48;;;;;;;29.70;16.23;;;;;;;1.33;90.41;99604.13;10053454;29;20045;-75
2022/11/18 17:13:51;;;;;;;29.75;15.75;;;;;;;1.23;89.44;99614.34;10036947;29;20565;-76
2022/11/18 17:19:00;;;;;;;33.42;16.48;;;;;;;1.24;88.69;99622.22;10027006;29;20129;-76
2022/11/18 17:24:16;;;;;;;31.10;15.80;;;;;;;1.04;88.85;99636.53;10049240;29;20050;-76
2022/11/18 17:29:19;;;;;;;40.88;19.27;;;;;;;1.00;88.71;99627.03;10056303;29;20049;-76
2022/11/18 17:34:23;;;;;;;33.40;19.13;;;;;;;1.03;88.57;99626.88;10048026;29;20049;-77
2022/11/18 17:39:30;;;;;;;38.25;19.10;;;;;;;0.81;88.83;99635.09;10048650;29;20053;-77
2022/11/18 17:44:33;;;;;;;39.78;19.40;;;;;;;0.86;88.80;99644.59;10049902;29;20089;-76
2022/11/18 17:49:36;;;;;;;39.45;21.52;;;;;;;0.71;88.19;99654.16;10045859;29;20431;-76
2022/11/18 17:54:40;;;;;;;38.17;19.80;;;;;;;0.80;88.60;99669.56;10046122;29;20038;-76
2022/11/18 17:59:43;;;;;;;35.72;18.77;;;;;;;0.75;88.52;99674.22;10047486;29;20483;-77
2022/11/18 18:04:46;;;;;;;45.15;20.55;;;;;;;0.64;88.40;99684.50;10030234;29;20125;-76
2022/11/18 18:09:50;;;;;;;42.60;21.60;;;;;;;0.70;88.67;99692.97;10043301;29;20049;-77
2022/11/18 18:14:53;;;;;;;42.90;22.33;;;;;;;0.80;88.39;99712.72;10029680;29;20080;-77
2022/11/18 18:19:55;;;;;;;43.30;20.88;;;;;;;0.81;88.36;99721.50;10026619;29;20054;-77
2022/11/18 18:25:00;;;;;;;48.35;22.45;;;;;;;0.83;88.52;99724.91;10037119;29;20076;-77
2022/11/18 18:30:02;;;;;;;43.40;23.88;;;;;;;0.94;88.34;99732.31;10048454;29;20153;-77
2022/11/18 18:35:06;;;;;;;45.70;22.92;;;;;;;0.89;88.08;99744.91;10045829;29;20120;-77
2022/11/18 18:40:12;;;;;;;44.35;21.88;;;;;;;0.78;88.12;99742.81;10043637;29;20046;-77
2022/11/18 18:50:35;;;;;;;51.00;23.35;;;;;;;0.81;88.26;99747.94;10040593;29;20056;-77
2022/11/18 18:55:39;;;;;;;48.17;23.15;;;;;;;0.62;87.69;99748.00;10060302;29;20543;-77
2022/11/18 19:00:46;;;;;;;49.30;25.02;;;;;;;0.60;87.98;99748.09;10045736;29;20090;-77
2022/11/18 19:05:49;;;;;;;50.78;25.17;;;;;;;0.58;87.96;99752.59;10047983;29;20042;-77
2022/11/18 19:16:32;;;;;;;53.75;25.70;;;;;;;0.63;87.70;99770.00;10053279;29;20042;-77
2022/11/18 19:21:35;;;;;;;53.92;26.45;;;;;;;0.53;88.02;99766.97;10052025;29;20057;-77
2022/11/18 19:26:39;;;;;;;43.53;24.08;;;;;;;0.48;87.86;99777.75;10065115;29;20715;-77
2022/11/18 19:31:42;;;;;;;53.40;26.63;;;;;;;0.29;88.21;99784.88;10055004;29;20050;-77
2022/11/18 19:36:45;;;;;;;49.78;24.75;;;;;;;0.40;88.02;99787.84;10053434;29;20417;-77
2022/11/18 19:41:49;;;;;;;57.13;28.65;;;;;;;0.47;87.94;99793.69;10047773;29;20052;-77
2022/11/18 19:46:52;;;;;;;54.42;28.42;;;;;;;0.34;87.87;99796.91;10054570;29;20053;-77
2022/11/18 19:51:55;;;;;;;52.83;26.02;;;;;;;0.40;88.00;99806.34;10053085;29;20051;-77
2022/11/18 19:56:59;;;;;;;56.03;27.45;;;;;;;0.43;88.04;99806.19;10051858;29;20414;-77
2022/11/18 20:02:02;;;;;;;57.65;27.80;;;;;;;0.48;88.10;99798.91;10044468;29;20120;-78
2022/11/18 20:07:05;;;;;;;60.88;29.52;;;;;;;0.46;88.11;99810.47;10131127;23;20064;-78
2022/11/18 20:12:10;;;;;;;48.42;25.33;;;;;;;0.38;88.38;99809.06;10148107;29;20398;-76
2022/11/18 20:17:13;;;;;;;52.88;27.48;;;;;;;0.43;87.59;99811.47;10153331;29;20196;-78
2022/11/18 20:22:16;;;;;;;50.40;25.40;;;;;;;0.30;87.02;99835.00;10151089;29;20024;-77
2022/11/18 20:27:20;;;;;;;47.95;23.38;;;;;;;0.33;87.14;99831.31;10162793;29;20056;-78
2022/11/18 20:32:23;;;;;;;47.67;24.90;;;;;;;0.17;87.18;99837.34;10141703;29;20127;-78
2022/11/18 20:37:26;;;;;;;47.92;26.10;;;;;;;0.20;86.91;99833.72;10129116;29;20037;-76
2022/11/18 20:47:54;;;;;;;49.83;26.48;;;;;;;0.37;86.61;99848.75;10137167;29;20056;-79
2022/11/18 20:52:57;;;;;;;50.60;25.98;;;;;;;0.35;86.15;99851.47;10148316;29;20057;-78
2022/11/18 20:58:02;;;;;;;53.67;28.42;;;;;;;0.38;86.01;99854.00;10143791;29;20056;-78
2022/11/18 21:03:05;;;;;;;49.70;25.27;;;;;;;0.34;85.92;99855.06;10121958;29;20667;-78
2022/11/18 21:08:09;;;;;;;44.58;24.10;;;;;;;0.30;85.50;99860.53;10140037;29;20120;-75
2022/11/18 21:18:33;;;;;;;48.77;24.60;;;;;;;0.20;85.29;99861.91;10132893;29;20049;-77
2022/11/18 21:23:37;;;;;;;43.88;23.48;;;;;;;0.27;85.32;99863.31;10125749;29;20041;-80
2022/11/18 21:28:41;;;;;;;47.60;25.10;;;;;;;0.10;84.59;99861.47;10127670;29;20064;-76
2022/11/18 21:33:44;;;;;;;47.55;25.42;;;;;;;0.08;84.01;99855.41;10120066;29;20045;-76
2022/11/18 21:38:47;;;;;;;50.10;25.33;;;;;;;0.09;84.14;99860.63;10117246;29;20061;-77
2022/11/18 21:43:51;;;;;;;49.40;27.27;;;;;;;0.06;83.57;99860.75;10113625;29;20045;-77
2022/11/18 21:49:10;;;;;;;49.78;25.08;;;;;;;0.07;83.32;99872.19;10134657;29;20788;-78
2022/11/18 21:54:14;;;;;;;49.38;25.23;;;;;;;-0.09;82.99;99872.00;10147756;29;20055;-77
2022/11/18 21:59:20;;;;;;;49.22;25.38;;;;;;;-0.07;82.33;99884.22;10152809;29;20048;-77
2022/11/18 22:09:44;;;;;;;51.22;29.50;;;;;;;-0.18;81.44;99889.13;10106634;29;20056;-79
2022/11/18 22:14:49;;;;;;;45.17;27.02;;;;;;;-0.07;80.86;99902.72;10133811;29;20043;-77
2022/11/18 22:19:52;;;;;;;51.25;29.70;;;;;;;-0.06;80.90;99904.41;10136791;29;20049;-77
2022/11/18 22:24:54;;;;;;;49.15;28.48;;;;;;;-0.04;81.08;99903.50;10136375;29;20049;-77
2022/11/18 22:29:58;;;;;;;53.25;27.63;;;;;;;0.07;80.90;99895.94;10137297;29;20045;-78
2022/11/18 22:35:01;;;;;;;54.08;28.27;;;;;;;0.06;80.98;99912.75;10124153;29;20073;-78
2022/11/18 22:40:06;;;;;;;51.70;27.02;;;;;;;0.01;80.56;99918.22;10142946;29;20053;-77
2022/11/18 22:45:10;;;;;;;53.20;27.90;;;;;;;0.15;81.55;99923.72;10161162;29;20037;-77
2022/11/18 22:50:13;;;;;;;56.30;26.42;;;;;;;0.17;81.47;99934.25;10154388;29;20116;-78
2022/11/18 22:55:16;;;;;;;54.58;27.77;;;;;;;0.07;81.27;99941.69;10149818;29;20048;-79
2022/11/18 23:00:20;;;;;;;51.25;26.83;;;;;;;0.09;80.97;99944.28;10150658;29;20052;-78
2022/11/18 23:05:23;;;;;;;49.33;26.17;;;;;;;0.03;79.98;99941.91;10155104;29;20100;-79
2022/11/18 23:10:26;;;;;;;52.58;26.73;;;;;;;0.10;80.72;99953.91;10158058;29;20433;-78
2022/11/18 23:15:32;;;;;;;52.85;26.08;;;;;;;0.15;80.99;99947.50;10149143;29;20044;-79
2022/11/18 23:20:35;;;;;;;54.65;27.30;;;;;;;0.07;80.61;99959.34;10151543;29;20060;-79
2022/11/18 23:25:38;;;;;;;57.90;30.40;;;;;;;-0.05;80.02;99955.47;10148265;29;20060;-78
2022/11/18 23:30:43;;;;;;;57.35;28.40;;;;;;;0.05;80.24;99962.03;10148354;29;20064;-78
2022/11/18 23:35:51;;;;;;;60.17;27.10;;;;;;;0.08;80.54;99972.50;10152602;29;20065;-80
2022/11/18 23:40:55;;;;;;;58.40;27.33;;;;;;;0.09;80.44;99968.91;10152258;29;20053;-80
2022/11/18 23:46:00;;;;;;;53.40;26.95;;;;;;;-0.03;80.16;99972.06;10153982;29;20049;-79
2022/11/18 23:51:04;;;;;;;55.72;28.92;;;;;;;-0.03;79.60;99985.28;10154332;29;20053;-80
2022/11/18 23:56:10;;;;;;;50.33;26.42;;;;;;;-0.00;79.89;99984.28;10158420;29;20041;-79
